sensor_id;sensor_type;location;lat;lon;timestamp;P1;durP1;ratioP1;P2;durP2;ratioP2
25637;SDS011;13496;51.040;13.680;2024-03-08T00:01:28;5.78;;;5.30;;
25637;SDS011;13496;51.040;13.680;2024-03-08T00:06:30;6.07;;;5.57;;
25637;SDS011;13496;51.040;13.680;2024-03-08T00:11:32;6.45;;;5.93;;
25637;SDS011;13496;51.040;13.680;2024-03-08T00:16:33;6.13;;;5.63;;
25637;SDS011;13496;51.040;13.680;2024-03-08T00:21:36;6.30;;;5.80;;
25637;SDS011;13496;51.040;13.680;2024-03-08T00:26:38;6.27;;;5.67;;
25637;SDS011;13496;51.040;13.680;2024-03-08T00:31:40;6.00;;;5.50;;
25637;SDS011;13496;51.040;13.680;2024-03-08T00:36:41;6.15;;;5.55;;
25637;SDS011;13496;51.040;13.680;2024-03-08T00:41:43;6.63;;;6.13;;
25637;SDS011;13496;51.040;13.680;2024-03-08T00:46:46;6.82;;;5.90;;
25637;SDS011;13496;51.040;13.680;2024-03-08T00:51:47;6.68;;;5.97;;
25637;SDS011;13496;51.040;13.680;2024-03-08T00:56:49;6.57;;;6.00;;
25637;SDS011;13496;51.040;13.680;2024-03-08T01:01:52;6.32;;;5.80;;
25637;SDS011;13496;51.040;13.680;2024-03-08T01:06:53;6.50;;;5.90;;
25637;SDS011;13496;51.040;13.680;2024-03-08T01:11:55;6.90;;;6.30;;
25637;SDS011;13496;51.040;13.680;2024-03-08T01:16:57;7.30;;;6.60;;
25637;SDS011;13496;51.040;13.680;2024-03-08T01:21:59;6.53;;;6.03;;
25637;SDS011;13496;51.040;13.680;2024-03-08T01:27:00;7.35;;;6.75;;
25637;SDS011;13496;51.040;13.680;2024-03-08T01:32:04;7.07;;;6.47;;
25637;SDS011;13496;51.040;13.680;2024-03-08T01:37:07;6.68;;;6.13;;
25637;SDS011;13496;51.040;13.680;2024-03-08T01:42:09;6.07;;;5.57;;
25637;SDS011;13496;51.040;13.680;2024-03-08T01:47:13;6.93;;;6.35;;
25637;SDS011;13496;51.040;13.680;2024-03-08T01:52:16;6.45;;;5.85;;
25637;SDS011;13496;51.040;13.680;2024-03-08T01:57:22;6.78;;;6.18;;
25637;SDS011;13496;51.040;13.680;2024-03-08T02:02:24;6.57;;;6.07;;
25637;SDS011;13496;51.040;13.680;2024-03-08T02:07:26;6.88;;;6.28;;
25637;SDS011;13496;51.040;13.680;2024-03-08T02:12:28;6.28;;;5.78;;
25637;SDS011;13496;51.040;13.680;2024-03-08T02:17:30;7.10;;;6.50;;
25637;SDS011;13496;51.040;13.680;2024-03-08T02:22:31;6.13;;;5.63;;
25637;SDS011;13496;51.040;13.680;2024-03-08T02:27:33;8.10;;;6.93;;
25637;SDS011;13496;51.040;13.680;2024-03-08T02:32:35;7.10;;;6.50;;
25637;SDS011;13496;51.040;13.680;2024-03-08T02:37:37;6.07;;;5.57;;
25637;SDS011;13496;51.040;13.680;2024-03-08T02:42:39;6.53;;;5.93;;
25637;SDS011;13496;51.040;13.680;2024-03-08T02:47:41;7.78;;;6.40;;
25637;SDS011;13496;51.040;13.680;2024-03-08T02:52:43;6.50;;;5.88;;
25637;SDS011;13496;51.040;13.680;2024-03-08T02:57:45;6.95;;;6.35;;
25637;SDS011;13496;51.040;13.680;2024-03-08T03:02:48;7.20;;;6.50;;
25637;SDS011;13496;51.040;13.680;2024-03-08T03:07:55;7.00;;;6.40;;
25637;SDS011;13496;51.040;13.680;2024-03-08T03:12:57;7.40;;;6.70;;
25637;SDS011;13496;51.040;13.680;2024-03-08T03:17:59;6.45;;;5.85;;
25637;SDS011;13496;51.040;13.680;2024-03-08T03:23:01;6.80;;;6.20;;
25637;SDS011;13496;51.040;13.680;2024-03-08T03:28:04;7.00;;;6.40;;
25637;SDS011;13496;51.040;13.680;2024-03-08T03:33:08;6.78;;;6.28;;
25637;SDS011;13496;51.040;13.680;2024-03-08T03:38:11;6.30;;;5.80;;
25637;SDS011;13496;51.040;13.680;2024-03-08T03:43:13;6.90;;;6.30;;
25637;SDS011;13496;51.040;13.680;2024-03-08T03:48:14;6.85;;;6.25;;
25637;SDS011;13496;51.040;13.680;2024-03-08T03:53:16;7.13;;;6.53;;
25637;SDS011;13496;51.040;13.680;2024-03-08T03:58:18;6.50;;;6.00;;
25637;SDS011;13496;51.040;13.680;2024-03-08T04:03:23;6.53;;;6.03;;
25637;SDS011;13496;51.040;13.680;2024-03-08T04:08:25;6.82;;;6.22;;
25637;SDS011;13496;51.040;13.680;2024-03-08T04:13:27;6.45;;;5.95;;
25637;SDS011;13496;51.040;13.680;2024-03-08T04:18:29;6.65;;;6.05;;
25637;SDS011;13496;51.040;13.680;2024-03-08T04:23:31;7.10;;;6.50;;
25637;SDS011;13496;51.040;13.680;2024-03-08T04:28:32;6.95;;;6.35;;
25637;SDS011;13496;51.040;13.680;2024-03-08T04:33:34;6.70;;;6.10;;
25637;SDS011;13496;51.040;13.680;2024-03-08T04:38:37;6.70;;;6.13;;
25637;SDS011;13496;51.040;13.680;2024-03-08T04:43:42;6.70;;;6.10;;
25637;SDS011;13496;51.040;13.680;2024-03-08T04:48:44;6.28;;;5.78;;
25637;SDS011;13496;51.040;13.680;2024-03-08T04:53:46;6.95;;;6.40;;
25637;SDS011;13496;51.040;13.680;2024-03-08T04:58:47;9.75;;;6.78;;
25637;SDS011;13496;51.040;13.680;2024-03-08T05:03:49;8.70;;;6.53;;
25637;SDS011;13496;51.040;13.680;2024-03-08T05:08:52;10.48;;;7.00;;
25637;SDS011;13496;51.040;13.680;2024-03-08T05:13:54;11.57;;;6.87;;
25637;SDS011;13496;51.040;13.680;2024-03-08T05:18:55;9.80;;;6.83;;
25637;SDS011;13496;51.040;13.680;2024-03-08T05:23:58;8.57;;;6.40;;
25637;SDS011;13496;51.040;13.680;2024-03-08T05:29:00;8.70;;;6.67;;
25637;SDS011;13496;51.040;13.680;2024-03-08T05:34:01;6.95;;;6.05;;
25637;SDS011;13496;51.040;13.680;2024-03-08T05:39:03;7.00;;;6.28;;
25637;SDS011;13496;51.040;13.680;2024-03-08T05:44:07;7.27;;;6.57;;
25637;SDS011;13496;51.040;13.680;2024-03-08T05:49:10;7.77;;;6.90;;
25637;SDS011;13496;51.040;13.680;2024-03-08T05:54:13;8.10;;;6.77;;
25637;SDS011;13496;51.040;13.680;2024-03-08T05:59:15;7.78;;;6.43;;
25637;SDS011;13496;51.040;13.680;2024-03-08T06:04:17;6.83;;;6.03;;
25637;SDS011;13496;51.040;13.680;2024-03-08T06:09:19;7.68;;;6.90;;
25637;SDS011;13496;51.040;13.680;2024-03-08T06:14:24;7.55;;;6.38;;
25637;SDS011;13496;51.040;13.680;2024-03-08T06:19:26;7.57;;;6.73;;
25637;SDS011;13496;51.040;13.680;2024-03-08T06:24:28;6.85;;;6.13;;
25637;SDS011;13496;51.040;13.680;2024-03-08T06:29:29;7.37;;;6.70;;
25637;SDS011;13496;51.040;13.680;2024-03-08T06:34:34;9.03;;;6.57;;
25637;SDS011;13496;51.040;13.680;2024-03-08T06:39:36;7.85;;;7.05;;
25637;SDS011;13496;51.040;13.680;2024-03-08T06:44:38;7.15;;;6.45;;
25637;SDS011;13496;51.040;13.680;2024-03-08T06:49:47;7.30;;;6.57;;
25637;SDS011;13496;51.040;13.680;2024-03-08T06:54:50;7.57;;;6.88;;
25637;SDS011;13496;51.040;13.680;2024-03-08T06:59:53;7.93;;;7.22;;
25637;SDS011;13496;51.040;13.680;2024-03-08T07:04:55;7.03;;;6.32;;
25637;SDS011;13496;51.040;13.680;2024-03-08T07:09:57;6.45;;;5.85;;
25637;SDS011;13496;51.040;13.680;2024-03-08T07:14:59;6.78;;;6.18;;
25637;SDS011;13496;51.040;13.680;2024-03-08T07:20:01;6.50;;;5.90;;
25637;SDS011;13496;51.040;13.680;2024-03-08T07:25:09;6.60;;;6.00;;
25637;SDS011;13496;51.040;13.680;2024-03-08T07:30:25;6.72;;;6.13;;
25637;SDS011;13496;51.040;13.680;2024-03-08T07:35:45;10.47;;;6.50;;
25637;SDS011;13496;51.040;13.680;2024-03-08T07:40:48;7.13;;;6.40;;
25637;SDS011;13496;51.040;13.680;2024-03-08T07:45:50;6.63;;;6.03;;
25637;SDS011;13496;51.040;13.680;2024-03-08T07:50:54;7.07;;;6.47;;
25637;SDS011;13496;51.040;13.680;2024-03-08T07:55:56;6.45;;;5.85;;
25637;SDS011;13496;51.040;13.680;2024-03-08T08:00:58;8.57;;;6.45;;
25637;SDS011;13496;51.040;13.680;2024-03-08T08:06:00;7.57;;;6.82;;
25637;SDS011;13496;51.040;13.680;2024-03-08T08:11:02;8.05;;;7.25;;
25637;SDS011;13496;51.040;13.680;2024-03-08T08:16:04;8.30;;;6.88;;
25637;SDS011;13496;51.040;13.680;2024-03-08T08:21:07;10.75;;;7.90;;
25637;SDS011;13496;51.040;13.680;2024-03-08T08:26:10;7.47;;;6.78;;
25637;SDS011;13496;51.040;13.680;2024-03-08T08:31:12;8.10;;;7.15;;
25637;SDS011;13496;51.040;13.680;2024-03-08T08:36:14;7.60;;;6.90;;
25637;SDS011;13496;51.040;13.680;2024-03-08T08:41:16;8.23;;;7.40;;
25637;SDS011;13496;51.040;13.680;2024-03-08T08:46:20;7.68;;;6.90;;
25637;SDS011;13496;51.040;13.680;2024-03-08T08:51:22;8.55;;;7.75;;
25637;SDS011;13496;51.040;13.680;2024-03-08T08:56:24;7.88;;;7.07;;
25637;SDS011;13496;51.040;13.680;2024-03-08T09:01:27;8.30;;;7.50;;
25637;SDS011;13496;51.040;13.680;2024-03-08T09:06:30;8.15;;;7.45;;
25637;SDS011;13496;51.040;13.680;2024-03-08T09:11:32;7.30;;;6.68;;
25637;SDS011;13496;51.040;13.680;2024-03-08T09:16:34;8.10;;;7.40;;
25637;SDS011;13496;51.040;13.680;2024-03-08T09:21:36;8.27;;;7.47;;
25637;SDS011;13496;51.040;13.680;2024-03-08T09:26:38;9.38;;;7.35;;
25637;SDS011;13496;51.040;13.680;2024-03-08T09:31:42;8.27;;;7.47;;
25637;SDS011;13496;51.040;13.680;2024-03-08T09:36:44;8.73;;;7.82;;
25637;SDS011;13496;51.040;13.680;2024-03-08T09:41:46;8.30;;;7.60;;
25637;SDS011;13496;51.040;13.680;2024-03-08T09:46:51;9.00;;;7.75;;
25637;SDS011;13496;51.040;13.680;2024-03-08T09:51:54;7.90;;;7.13;;
25637;SDS011;13496;51.040;13.680;2024-03-08T09:56:57;8.55;;;7.63;;
25637;SDS011;13496;51.040;13.680;2024-03-08T10:01:59;7.72;;;7.03;;
25637;SDS011;13496;51.040;13.680;2024-03-08T10:07:01;8.32;;;7.53;;
25637;SDS011;13496;51.040;13.680;2024-03-08T10:12:04;8.55;;;7.85;;
25637;SDS011;13496;51.040;13.680;2024-03-08T10:17:06;8.20;;;7.50;;
25637;SDS011;13496;51.040;13.680;2024-03-08T10:22:14;8.77;;;7.95;;
25637;SDS011;13496;51.040;13.680;2024-03-08T10:27:17;7.78;;;7.07;;
25637;SDS011;13496;51.040;13.680;2024-03-08T10:32:19;9.45;;;8.13;;
25637;SDS011;13496;51.040;13.680;2024-03-08T10:37:22;8.25;;;7.55;;
25637;SDS011;13496;51.040;13.680;2024-03-08T10:42:26;8.13;;;7.43;;
25637;SDS011;13496;51.040;13.680;2024-03-08T10:47:30;8.35;;;7.65;;
25637;SDS011;13496;51.040;13.680;2024-03-08T10:52:32;8.45;;;7.65;;
25637;SDS011;13496;51.040;13.680;2024-03-08T10:57:36;8.45;;;7.72;;
25637;SDS011;13496;51.040;13.680;2024-03-08T11:02:42;7.88;;;7.18;;
25637;SDS011;13496;51.040;13.680;2024-03-08T11:07:45;9.02;;;8.13;;
25637;SDS011;13496;51.040;13.680;2024-03-08T11:12:49;7.97;;;7.28;;
25637;SDS011;13496;51.040;13.680;2024-03-08T11:17:51;8.02;;;7.32;;
25637;SDS011;13496;51.040;13.680;2024-03-08T11:23:00;7.97;;;7.18;;
25637;SDS011;13496;51.040;13.680;2024-03-08T11:28:06;8.02;;;7.28;;
25637;SDS011;13496;51.040;13.680;2024-03-08T11:33:19;9.05;;;8.25;;
25637;SDS011;13496;51.040;13.680;2024-03-08T11:38:20;7.72;;;7.03;;
25637;SDS011;13496;51.040;13.680;2024-03-08T11:43:23;8.25;;;7.55;;
25637;SDS011;13496;51.040;13.680;2024-03-08T11:48:26;8.10;;;7.40;;
25637;SDS011;13496;51.040;13.680;2024-03-08T11:53:27;7.72;;;7.03;;
25637;SDS011;13496;51.040;13.680;2024-03-08T11:58:29;8.23;;;7.43;;
25637;SDS011;13496;51.040;13.680;2024-03-08T12:03:31;7.95;;;7.20;;
25637;SDS011;13496;51.040;13.680;2024-03-08T12:08:35;7.68;;;6.97;;
25637;SDS011;13496;51.040;13.680;2024-03-08T12:13:38;8.55;;;7.72;;
25637;SDS011;13496;51.040;13.680;2024-03-08T12:18:40;8.07;;;7.38;;
25637;SDS011;13496;51.040;13.680;2024-03-08T12:23:42;8.18;;;7.40;;
25637;SDS011;13496;51.040;13.680;2024-03-08T12:28:46;7.65;;;6.95;;
25637;SDS011;13496;51.040;13.680;2024-03-08T12:33:49;7.35;;;6.75;;
25637;SDS011;13496;51.040;13.680;2024-03-08T12:38:53;7.68;;;6.97;;
25637;SDS011;13496;51.040;13.680;2024-03-08T12:43:58;7.95;;;7.28;;
25637;SDS011;13496;51.040;13.680;2024-03-08T12:49:00;7.70;;;7.00;;
25637;SDS011;13496;51.040;13.680;2024-03-08T12:54:02;7.38;;;6.78;;
25637;SDS011;13496;51.040;13.680;2024-03-08T12:59:04;7.70;;;7.00;;
25637;SDS011;13496;51.040;13.680;2024-03-08T13:04:06;8.15;;;7.45;;
25637;SDS011;13496;51.040;13.680;2024-03-08T13:09:12;7.38;;;6.78;;
25637;SDS011;13496;51.040;13.680;2024-03-08T13:14:14;7.60;;;6.90;;
25637;SDS011;13496;51.040;13.680;2024-03-08T13:19:16;7.53;;;6.93;;
25637;SDS011;13496;51.040;13.680;2024-03-08T13:24:18;7.05;;;6.45;;
25637;SDS011;13496;51.040;13.680;2024-03-08T13:29:20;7.53;;;6.82;;
25637;SDS011;13496;51.040;13.680;2024-03-08T13:34:22;7.35;;;6.65;;
25637;SDS011;13496;51.040;13.680;2024-03-08T13:39:29;7.28;;;6.60;;
25637;SDS011;13496;51.040;13.680;2024-03-08T13:44:33;7.32;;;6.63;;
25637;SDS011;13496;51.040;13.680;2024-03-08T13:49:34;7.13;;;6.53;;
25637;SDS011;13496;51.040;13.680;2024-03-08T13:54:37;7.40;;;6.70;;
25637;SDS011;13496;51.040;13.680;2024-03-08T13:59:40;7.57;;;6.93;;
25637;SDS011;13496;51.040;13.680;2024-03-08T14:04:41;7.25;;;6.65;;
25637;SDS011;13496;51.040;13.680;2024-03-08T14:09:50;7.03;;;6.35;;
25637;SDS011;13496;51.040;13.680;2024-03-08T14:14:54;6.80;;;6.20;;
25637;SDS011;13496;51.040;13.680;2024-03-08T14:19:56;7.07;;;6.47;;
25637;SDS011;13496;51.040;13.680;2024-03-08T14:24:58;7.47;;;6.43;;
25637;SDS011;13496;51.040;13.680;2024-03-08T14:29:59;6.95;;;6.25;;
25637;SDS011;13496;51.040;13.680;2024-03-08T14:35:01;7.13;;;6.53;;
25637;SDS011;13496;51.040;13.680;2024-03-08T14:40:03;6.97;;;6.38;;
25637;SDS011;13496;51.040;13.680;2024-03-08T14:45:06;7.43;;;6.47;;
25637;SDS011;13496;51.040;13.680;2024-03-08T14:50:09;7.05;;;6.35;;
25637;SDS011;13496;51.040;13.680;2024-03-08T14:55:10;6.72;;;6.13;;
25637;SDS011;13496;51.040;13.680;2024-03-08T15:00:16;6.63;;;5.95;;
25637;SDS011;13496;51.040;13.680;2024-03-08T15:05:28;7.10;;;6.50;;
25637;SDS011;13496;51.040;13.680;2024-03-08T15:10:33;6.60;;;6.00;;
25637;SDS011;13496;51.040;13.680;2024-03-08T15:15:35;6.40;;;5.70;;
25637;SDS011;13496;51.040;13.680;2024-03-08T15:20:36;7.00;;;6.30;;
25637;SDS011;13496;51.040;13.680;2024-03-08T15:25:38;6.40;;;5.80;;
25637;SDS011;13496;51.040;13.680;2024-03-08T15:30:43;6.50;;;5.78;;
25637;SDS011;13496;51.040;13.680;2024-03-08T15:35:48;6.40;;;5.80;;
25637;SDS011;13496;51.040;13.680;2024-03-08T15:40:52;6.53;;;5.30;;
25637;SDS011;13496;51.040;13.680;2024-03-08T15:45:55;6.72;;;6.03;;
25637;SDS011;13496;51.040;13.680;2024-03-08T15:50:59;6.10;;;5.60;;
25637;SDS011;13496;51.040;13.680;2024-03-08T15:56:04;9.55;;;5.55;;
25637;SDS011;13496;51.040;13.680;2024-03-08T16:01:10;6.00;;;5.43;;
25637;SDS011;13496;51.040;13.680;2024-03-08T16:06:18;6.05;;;5.45;;
25637;SDS011;13496;51.040;13.680;2024-03-08T16:11:22;5.15;;;4.75;;
25637;SDS011;13496;51.040;13.680;2024-03-08T16:16:24;7.68;;;5.55;;
25637;SDS011;13496;51.040;13.680;2024-03-08T16:21:27;6.18;;;5.55;;
25637;SDS011;13496;51.040;13.680;2024-03-08T16:26:29;6.30;;;5.70;;
25637;SDS011;13496;51.040;13.680;2024-03-08T16:31:36;6.53;;;5.80;;
25637;SDS011;13496;51.040;13.680;2024-03-08T16:36:38;5.90;;;5.25;;
25637;SDS011;13496;51.040;13.680;2024-03-08T16:41:41;5.82;;;5.20;;
25637;SDS011;13496;51.040;13.680;2024-03-08T16:46:43;6.80;;;5.68;;
25637;SDS011;13496;51.040;13.680;2024-03-08T16:51:45;6.45;;;5.47;;
25637;SDS011;13496;51.040;13.680;2024-03-08T16:56:48;5.35;;;4.85;;
25637;SDS011;13496;51.040;13.680;2024-03-08T17:01:51;5.35;;;4.85;;
25637;SDS011;13496;51.040;13.680;2024-03-08T17:06:53;7.32;;;5.00;;
25637;SDS011;13496;51.040;13.680;2024-03-08T17:11:55;5.75;;;5.15;;
25637;SDS011;13496;51.040;13.680;2024-03-08T17:16:57;5.95;;;5.45;;
25637;SDS011;13496;51.040;13.680;2024-03-08T17:22:00;5.72;;;5.10;;
25637;SDS011;13496;51.040;13.680;2024-03-08T17:27:04;5.30;;;4.90;;
25637;SDS011;13496;51.040;13.680;2024-03-08T17:32:08;5.10;;;4.70;;
25637;SDS011;13496;51.040;13.680;2024-03-08T17:37:09;6.05;;;4.75;;
25637;SDS011;13496;51.040;13.680;2024-03-08T17:42:12;4.70;;;4.30;;
25637;SDS011;13496;51.040;13.680;2024-03-08T17:47:14;5.75;;;5.10;;
25637;SDS011;13496;51.040;13.680;2024-03-08T17:52:17;5.60;;;5.10;;
25637;SDS011;13496;51.040;13.680;2024-03-08T17:57:18;5.22;;;4.75;;
25637;SDS011;13496;51.040;13.680;2024-03-08T18:02:21;5.22;;;4.70;;
25637;SDS011;13496;51.040;13.680;2024-03-08T18:07:23;5.38;;;4.65;;
25637;SDS011;13496;51.040;13.680;2024-03-08T18:12:24;4.85;;;4.45;;
25637;SDS011;13496;51.040;13.680;2024-03-08T18:17:26;5.35;;;4.78;;
25637;SDS011;13496;51.040;13.680;2024-03-08T18:22:29;5.22;;;4.72;;
25637;SDS011;13496;51.040;13.680;2024-03-08T18:27:30;5.20;;;4.70;;
25637;SDS011;13496;51.040;13.680;2024-03-08T18:32:33;5.10;;;4.60;;
25637;SDS011;13496;51.040;13.680;2024-03-08T18:37:35;5.15;;;4.65;;
25637;SDS011;13496;51.040;13.680;2024-03-08T18:42:41;5.07;;;4.43;;
25637;SDS011;13496;51.040;13.680;2024-03-08T18:47:46;5.13;;;4.68;;
25637;SDS011;13496;51.040;13.680;2024-03-08T18:52:49;4.93;;;4.43;;
25637;SDS011;13496;51.040;13.680;2024-03-08T18:57:51;4.72;;;4.13;;
25637;SDS011;13496;51.040;13.680;2024-03-08T19:02:54;4.50;;;4.10;;
25637;SDS011;13496;51.040;13.680;2024-03-08T19:08:06;5.28;;;4.78;;
25637;SDS011;13496;51.040;13.680;2024-03-08T19:13:09;4.82;;;4.40;;
25637;SDS011;13496;51.040;13.680;2024-03-08T19:18:13;54.97;;;9.40;;
25637;SDS011;13496;51.040;13.680;2024-03-08T19:23:15;4.80;;;4.22;;
25637;SDS011;13496;51.040;13.680;2024-03-08T19:28:17;10.75;;;5.00;;
25637;SDS011;13496;51.040;13.680;2024-03-08T19:33:21;16.08;;;4.95;;
25637;SDS011;13496;51.040;13.680;2024-03-08T19:38:23;11.30;;;5.20;;
25637;SDS011;13496;51.040;13.680;2024-03-08T19:43:25;13.50;;;5.55;;
25637;SDS011;13496;51.040;13.680;2024-03-08T19:48:28;10.38;;;5.10;;
25637;SDS011;13496;51.040;13.680;2024-03-08T19:53:30;10.27;;;5.47;;
25637;SDS011;13496;51.040;13.680;2024-03-08T19:58:34;6.85;;;4.50;;
25637;SDS011;13496;51.040;13.680;2024-03-08T20:03:36;8.57;;;5.18;;
25637;SDS011;13496;51.040;13.680;2024-03-08T20:08:38;6.85;;;5.30;;
25637;SDS011;13496;51.040;13.680;2024-03-08T20:13:42;6.18;;;5.13;;
25637;SDS011;13496;51.040;13.680;2024-03-08T20:18:47;6.28;;;4.47;;
25637;SDS011;13496;51.040;13.680;2024-03-08T20:23:49;6.03;;;4.72;;
25637;SDS011;13496;51.040;13.680;2024-03-08T20:28:51;8.23;;;5.05;;
25637;SDS011;13496;51.040;13.680;2024-03-08T20:33:52;7.45;;;5.03;;
25637;SDS011;13496;51.040;13.680;2024-03-08T20:38:54;6.63;;;5.10;;
25637;SDS011;13496;51.040;13.680;2024-03-08T20:43:57;6.05;;;5.38;;
25637;SDS011;13496;51.040;13.680;2024-03-08T20:48:58;9.20;;;5.20;;
25637;SDS011;13496;51.040;13.680;2024-03-08T20:54:02;5.15;;;4.65;;
25637;SDS011;13496;51.040;13.680;2024-03-08T20:59:06;6.38;;;4.65;;
25637;SDS011;13496;51.040;13.680;2024-03-08T21:04:08;6.18;;;4.95;;
25637;SDS011;13496;51.040;13.680;2024-03-08T21:09:14;8.63;;;5.28;;
25637;SDS011;13496;51.040;13.680;2024-03-08T21:14:15;5.82;;;4.90;;
25637;SDS011;13496;51.040;13.680;2024-03-08T21:19:17;7.30;;;5.15;;
25637;SDS011;13496;51.040;13.680;2024-03-08T21:24:20;5.65;;;5.15;;
25637;SDS011;13496;51.040;13.680;2024-03-08T21:29:22;5.03;;;4.53;;
25637;SDS011;13496;51.040;13.680;2024-03-08T21:34:24;5.60;;;5.10;;
25637;SDS011;13496;51.040;13.680;2024-03-08T21:39:27;5.03;;;4.53;;
25637;SDS011;13496;51.040;13.680;2024-03-08T21:44:29;5.53;;;5.03;;
25637;SDS011;13496;51.040;13.680;2024-03-08T21:49:31;5.63;;;5.03;;
25637;SDS011;13496;51.040;13.680;2024-03-08T21:54:33;6.00;;;4.43;;
25637;SDS011;13496;51.040;13.680;2024-03-08T21:59:36;5.88;;;5.22;;
25637;SDS011;13496;51.040;13.680;2024-03-08T22:04:40;5.25;;;4.78;;
25637;SDS011;13496;51.040;13.680;2024-03-08T22:09:42;6.05;;;4.93;;
25637;SDS011;13496;51.040;13.680;2024-03-08T22:14:44;6.03;;;4.55;;
25637;SDS011;13496;51.040;13.680;2024-03-08T22:19:46;5.18;;;4.60;;
25637;SDS011;13496;51.040;13.680;2024-03-08T22:24:48;4.95;;;4.55;;
25637;SDS011;13496;51.040;13.680;2024-03-08T22:29:54;4.97;;;4.57;;
25637;SDS011;13496;51.040;13.680;2024-03-08T22:34:56;4.78;;;4.38;;
25637;SDS011;13496;51.040;13.680;2024-03-08T22:39:58;5.57;;;5.07;;
25637;SDS011;13496;51.040;13.680;2024-03-08T22:45:01;5.03;;;4.53;;
25637;SDS011;13496;51.040;13.680;2024-03-08T22:50:05;5.00;;;4.60;;
25637;SDS011;13496;51.040;13.680;2024-03-08T22:55:09;5.60;;;4.50;;
25637;SDS011;13496;51.040;13.680;2024-03-08T23:00:11;5.10;;;4.60;;
25637;SDS011;13496;51.040;13.680;2024-03-08T23:05:36;5.40;;;4.90;;
25637;SDS011;13496;51.040;13.680;2024-03-08T23:10:47;5.78;;;5.28;;
25637;SDS011;13496;51.040;13.680;2024-03-08T23:15:50;5.10;;;4.60;;
25637;SDS011;13496;51.040;13.680;2024-03-08T23:20:52;5.30;;;4.90;;
25637;SDS011;13496;51.040;13.680;2024-03-08T23:25:57;5.35;;;4.88;;
25637;SDS011;13496;51.040;13.680;2024-03-08T23:30:59;5.50;;;5.05;;
25637;SDS011;13496;51.040;13.680;2024-03-08T23:36:01;5.80;;;5.30;;
25637;SDS011;13496;51.040;13.680;2024-03-08T23:41:03;5.30;;;4.85;;
25637;SDS011;13496;51.040;13.680;2024-03-08T23:46:05;4.97;;;4.57;;
25637;SDS011;13496;51.040;13.680;2024-03-08T23:51:07;4.93;;;4.53;;
25637;SDS011;13496;51.040;13.680;2024-03-08T23:56:10;5.57;;;5.07;;
